Terminal Aerodrome Forecast
Issued by NWS Glasgow, MT

Home | Current Version | Previous Version | Text Only | Print | Product List | Glossary On
Versions: 1 2 3 4 5 6 7 8 9 10 11 12 13 14 15 16 17 18 19 20 21
978
FTUS45 KGGW 232320
TAFGGW
TAF
KGGW 232320Z 2400/2424 33006KT P6SM VCSH BKN025
     FM240300 33005KT P6SM BKN030
     FM240800 32005KT P6SM BKN015
     FM242100 31009KT P6SM BKN015=

USA.gov is the U.S. government's official web portal to all federal, state and local government web resources and services.